KDLN/DLN METAR and TAF weather

Enter ICAO airport designator
Station Type Date Time Source
KDLN METAR 2020/04/07 03:53 UTC NOAA

KDLN 070353Z AUTO 21012KT 10SM BKN095 06/00 A2983 RMK AO2 SLP094 T00560000


Station Type Date Time Source
KDLN Decoded METAR 2020/04/07 03:53 UTC NOAA

DILLON AIRPORT, MT, United States (KDLN) 45-15N 112-33W 1591M
Apr 06, 2020 - 11:53 PM EDT / 2020.04.07 0353 UTC
Wind: from the SSW (210 degrees) at 14 MPH (12 KT):0
Visibility: 10 mile(s):0
Sky conditions: mostly cloudy
Temperature: 42.1 F (5.6 C)
Dew Point: 32.0 F (0.0 C)
Relative Humidity: 67%
Pressure (altimeter): 29.83 in. Hg (1010 hPa)
ob: KDLN 070353Z AUTO 21012KT 10SM BKN095 06/00 A2983 RMK AO2 SLP094 T00560000
cycle: 4

Station Type Date Time Source
KDLN TAF UTC NOAA

Error!

Example: see airport list